Time;durP1;ratioP1;P1;durP2;ratioP2;P2;SDS_P1;SDS_P2;PMS_P1;PMS_P2;Temp;Humidity;BMP_temperature;BMP_pressure;BME280_temperature;BME280_humidity;BME280_pressure;Samples;Min_cycle;Max_cycle;Signal;HPM_P1;HPM_P2
2023/11/03 00:00:39;;;;;;;8.13;3.20;;;6.20;99.90;;;5.58;100.00;98350.13;4208685;28;20020;-70
2023/11/03 00:02:40;;;;;;;8.40;2.47;;;6.20;99.90;;;5.62;100.00;98344.53;4203637;28;20033;-71
2023/11/03 00:04:40;;;;;;;7.40;2.80;;;6.20;99.90;;;5.65;100.00;98339.75;4200302;28;20403;-71
2023/11/03 00:06:43;;;;;;;7.80;2.28;;;6.30;99.90;;;5.67;100.00;98342.22;4201707;28;20064;-71
2023/11/03 00:08:44;;;;;;;7.97;2.70;;;6.30;99.90;;;5.73;100.00;98346.72;4200742;28;20028;-70
2023/11/03 00:10:45;;;;;;;9.27;3.00;;;6.30;99.90;;;5.80;100.00;98358.03;4201565;28;20024;-70
2023/11/03 00:12:46;;;;;;;10.57;2.90;;;6.40;99.90;;;5.86;100.00;98357.34;4201718;28;20388;-70
2023/11/03 00:14:47;;;;;;;31.02;7.82;;;6.40;99.90;;;5.96;100.00;98357.88;4201281;28;20055;-70
2023/11/03 00:16:48;;;;;;;16.27;5.53;;;6.50;99.90;;;6.03;100.00;98350.91;4201687;28;20487;-70
2023/11/03 00:18:49;;;;;;;14.63;3.80;;;6.60;99.90;;;6.15;100.00;98359.91;4201559;28;20376;-70
2023/11/03 00:20:51;;;;;;;11.65;3.47;;;6.70;99.90;;;6.16;100.00;98358.88;4200235;28;20025;-70
2023/11/03 00:22:52;;;;;;;10.50;3.72;;;6.70;99.90;;;6.20;100.00;98354.91;4201697;28;20025;-70
2023/11/03 00:24:53;;;;;;;7.53;3.38;;;6.80;99.90;;;6.22;100.00;98368.59;4201530;28;20028;-70
2023/11/03 00:26:54;;;;;;;9.35;3.80;;;6.80;99.90;;;6.24;100.00;98365.81;4203234;28;20035;-71
2023/11/03 00:28:55;;;;;;;7.60;3.28;;;6.80;99.90;;;6.23;100.00;98365.00;4203813;28;20024;-71
2023/11/03 00:30:56;;;;;;;7.65;3.63;;;6.80;99.90;;;6.23;100.00;98357.16;4204895;28;20032;-71
2023/11/03 00:32:57;;;;;;;11.95;4.32;;;6.80;99.90;;;6.25;100.00;98357.75;4203709;28;20016;-70
2023/11/03 00:34:58;;;;;;;13.90;4.30;;;6.80;99.90;;;6.23;100.00;98351.91;4204567;28;20101;-70
2023/11/03 00:36:59;;;;;;;9.43;3.70;;;6.80;99.90;;;6.21;100.00;98353.91;4204596;28;20037;-70
2023/11/03 00:39:00;;;;;;;11.13;4.22;;;6.80;99.90;;;6.20;100.00;98349.66;4203560;28;20037;-71
2023/11/03 00:41:01;;;;;;;11.73;3.88;;;6.80;99.90;;;6.24;100.00;98348.31;4203599;28;20024;-71
2023/11/03 00:43:03;;;;;;;15.23;5.40;;;6.90;99.90;;;6.25;100.00;98343.84;4204640;28;20028;-71
2023/11/03 00:45:05;;;;;;;13.63;4.50;;;6.90;99.90;;;6.30;100.00;98350.16;4204712;28;20017;-70
2023/11/03 00:47:08;;;;;;;7.60;3.25;;;6.90;99.90;;;6.33;100.00;98339.31;4204579;28;20121;-70
2023/11/03 00:49:11;;;;;;;7.30;3.67;;;6.90;99.90;;;6.35;100.00;98345.19;4204629;28;20023;-70
2023/11/03 00:51:12;;;;;;;7.50;4.40;;;7.00;99.90;;;6.35;100.00;98345.19;4203021;28;20032;-70
2023/11/03 00:53:13;;;;;;;9.60;3.60;;;7.00;99.90;;;6.37;100.00;98348.41;4203319;28;20017;-70
2023/11/03 00:55:14;;;;;;;11.77;3.67;;;7.00;99.90;;;6.36;100.00;98349.41;4204511;28;20041;-71
2023/11/03 00:57:14;;;;;;;10.35;3.50;;;7.00;99.90;;;6.39;100.00;98341.16;4204369;28;20021;-70
2023/11/03 00:59:16;;;;;;;8.30;3.22;;;7.00;99.90;;;6.46;100.00;98349.09;4204380;28;20033;-71
2023/11/03 01:01:17;;;;;;;12.80;2.70;;;7.10;99.90;;;6.52;100.00;98348.34;4204370;28;20029;-71
2023/11/03 01:03:19;;;;;;;4.40;1.70;;;7.10;99.90;;;6.57;100.00;98349.38;4204363;28;20040;-70
2023/11/03 01:05:22;;;;;;;5.00;2.15;;;7.20;99.90;;;6.64;100.00;98358.13;4204068;28;20025;-71
2023/11/03 01:07:22;;;;;;;8.18;3.80;;;7.20;99.90;;;6.62;100.00;98354.91;4202891;28;20024;-70
2023/11/03 01:09:24;;;;;;;11.75;3.90;;;7.20;99.90;;;6.64;100.00;98355.50;4204266;28;20024;-70
2023/11/03 01:11:26;;;;;;;11.52;3.58;;;7.20;99.90;;;6.68;100.00;98351.53;4203056;28;20028;-70
2023/11/03 01:13:28;;;;;;;11.27;3.60;;;7.30;99.90;;;6.69;100.00;98360.97;4204001;28;20009;-70
2023/11/03 01:15:29;;;;;;;6.93;2.67;;;7.30;99.90;;;6.67;100.00;98357.75;4202891;28;20059;-71
2023/11/03 01:17:31;;;;;;;9.13;3.60;;;7.20;99.90;;;6.66;100.00;98361.34;4202944;28;20403;-70
2023/11/03 01:19:33;;;;;;;14.00;3.22;;;7.30;99.90;;;6.64;100.00;98365.97;4203980;28;20017;-70
2023/11/03 01:21:39;;;;;;;9.77;2.63;;;7.20;99.90;;;6.59;100.00;98363.13;4204142;28;20021;-70
2023/11/03 01:23:44;;;;;;;11.45;2.53;;;7.20;99.90;;;6.62;100.00;98365.38;4186123;28;20086;-70
2023/11/03 01:25:45;;;;;;;9.55;2.50;;;7.20;99.90;;;6.70;100.00;98361.78;4189741;28;20025;-71
2023/11/03 01:27:45;;;;;;;12.52;2.78;;;7.20;99.90;;;6.66;100.00;98363.16;4204130;28;20112;-71
2023/11/03 01:29:46;;;;;;;5.25;1.52;;;7.30;99.90;;;6.69;100.00;98375.88;4202697;28;20031;-71
2023/11/03 01:31:47;;;;;;;10.32;1.92;;;7.30;99.90;;;6.74;100.00;98367.47;4203890;28;20024;-71
2023/11/03 01:33:49;;;;;;;4.38;1.63;;;7.30;99.90;;;6.80;100.00;98369.34;4203913;28;20050;-70
2023/11/03 01:35:50;;;;;;;5.88;1.70;;;7.40;99.90;;;6.85;100.00;98362.53;4203428;28;20020;-70
2023/11/03 01:37:53;;;;;;;9.13;1.70;;;7.40;99.90;;;6.87;100.00;98349.25;4203746;28;20025;-70
2023/11/03 01:39:54;;;;;;;5.55;1.70;;;7.50;99.90;;;6.86;100.00;98348.44;4202627;28;20021;-70
2023/11/03 01:41:55;;;;;;;8.60;2.58;;;7.40;99.90;;;6.78;100.00;98343.31;4202595;28;20588;-70
2023/11/03 01:44:11;;;;;;;9.13;2.60;;;7.40;99.90;;;6.71;100.00;98341.66;4203727;28;20029;-70
2023/11/03 01:46:12;;;;;;;5.20;1.73;;;7.30;99.90;;;6.64;100.00;98349.44;4202689;28;20036;-71
2023/11/03 01:48:13;;;;;;;6.97;2.45;;;7.30;99.90;;;6.55;100.00;98342.72;4203552;28;20077;-70
2023/11/03 01:50:15;;;;;;;6.07;1.33;;;7.20;99.90;;;6.47;100.00;98345.50;4202400;28;20028;-70
2023/11/03 01:52:16;;;;;;;7.68;2.10;;;7.10;99.90;;;6.41;100.00;98341.00;4202570;28;20080;-70
2023/11/03 01:54:17;;;;;;;5.57;1.52;;;7.00;99.90;;;6.32;100.00;98342.94;4202257;28;20029;-70
2023/11/03 01:56:18;;;;;;;7.95;1.88;;;7.00;99.90;;;6.29;100.00;98343.31;4202229;28;20028;-71
2023/11/03 01:58:20;;;;;;;6.78;2.00;;;6.90;99.90;;;6.33;100.00;98343.75;4203774;28;20081;-71
2023/11/03 02:00:22;;;;;;;6.80;1.83;;;6.90;99.90;;;6.41;100.00;98339.19;4203598;28;20036;-70
2023/11/03 02:02:23;;;;;;;10.18;2.58;;;7.00;99.90;;;6.51;100.00;98331.81;4202200;28;20062;-70
2023/11/03 02:04:24;;;;;;;12.45;3.38;;;7.10;99.90;;;6.54;100.00;98326.19;4201870;28;20032;-70
2023/11/03 02:06:25;;;;;;;9.27;3.42;;;7.10;99.90;;;6.50;100.00;98324.16;4202448;28;20526;-70
2023/11/03 02:08:26;;;;;;;7.97;2.28;;;7.00;99.90;;;6.43;100.00;98323.28;4207894;28;20024;-70
2023/11/03 02:10:27;;;;;;;8.00;2.15;;;7.00;99.90;;;6.38;100.00;98328.28;4207081;28;20017;-71
2023/11/03 02:12:28;;;;;;;12.50;2.80;;;7.00;99.90;;;6.42;100.00;98327.69;4203304;28;20054;-70
2023/11/03 02:14:29;;;;;;;8.05;2.10;;;7.00;99.90;;;6.50;100.00;98329.41;4184962;28;20047;-70
2023/11/03 02:16:30;;;;;;;6.82;2.22;;;7.10;99.90;;;6.60;100.00;98325.44;4203426;28;20051;-70
2023/11/03 02:18:31;;;;;;;6.55;1.98;;;7.10;99.90;;;6.72;100.00;98314.47;4201992;28;20021;-70
2023/11/03 02:20:32;;;;;;;9.77;3.13;;;7.30;99.90;;;6.88;100.00;98314.16;4201774;28;20063;-70
2023/11/03 02:22:34;;;;;;;7.63;2.72;;;7.30;99.90;;;6.88;100.00;98301.88;4203387;28;20020;-70
2023/11/03 02:24:34;;;;;;;7.47;2.25;;;7.40;99.90;;;6.83;100.00;98308.69;4203097;28;20056;-71
2023/11/03 02:26:36;;;;;;;9.43;1.80;;;7.40;99.90;;;6.77;100.00;98304.22;4202938;28;20032;-71
2023/11/03 02:28:37;;;;;;;4.47;1.90;;;7.40;99.90;;;6.74;100.00;98304.59;4202917;28;20454;-70
2023/11/03 02:30:39;;;;;;;8.88;1.60;;;7.30;99.90;;;6.73;100.00;98293.31;4203012;28;20032;-70
2023/11/03 02:32:40;;;;;;;7.57;2.38;;;7.30;99.90;;;6.74;100.00;98299.34;4201739;28;20111;-70
2023/11/03 02:34:41;;;;;;;4.85;1.30;;;7.30;99.90;;;6.73;100.00;98295.91;4201491;28;20035;-70
2023/11/03 02:36:41;;;;;;;7.53;1.42;;;7.30;99.90;;;6.73;100.00;98287.25;4201810;28;20403;-70
2023/11/03 02:38:43;;;;;;;7.43;2.00;;;7.30;99.90;;;6.73;100.00;98276.78;4202911;28;20495;-70
2023/11/03 02:40:45;;;;;;;5.70;1.38;;;7.30;99.90;;;6.74;100.00;98265.31;4185106;28;20507;-70
2023/11/03 02:42:46;;;;;;;7.53;2.15;;;7.30;99.90;;;6.77;100.00;98270.97;4218302;28;20092;-70
2023/11/03 02:44:47;;;;;;;8.60;2.05;;;7.30;99.90;;;6.78;100.00;98264.72;4218303;28;20024;-70
2023/11/03 02:46:48;;;;;;;4.28;1.50;;;7.40;99.90;;;6.80;100.00;98260.09;4202302;28;20103;-71
2023/11/03 02:48:49;;;;;;;5.97;1.52;;;7.30;99.90;;;6.81;100.00;98253.06;4201927;28;20043;-70
2023/11/03 02:50:50;;;;;;;9.65;1.52;;;7.40;99.90;;;6.82;100.00;98254.66;4201254;28;20028;-70
2023/11/03 02:52:50;;;;;;;3.80;2.05;;;7.40;99.90;;;6.84;100.00;98257.91;4201235;28;20081;-70
2023/11/03 02:54:51;;;;;;;7.47;2.05;;;7.40;99.90;;;6.90;100.00;98257.16;4202452;28;20050;-70
2023/11/03 02:56:52;;;;;;;6.72;1.70;;;7.40;99.90;;;6.90;100.00;98249.28;4202548;28;20033;-70
2023/11/03 02:58:53;;;;;;;5.65;1.30;;;7.40;99.90;;;6.92;100.00;98248.09;4202560;28;20055;-70
2023/11/03 03:00:55;;;;;;;5.78;1.52;;;7.40;99.90;;;6.94;100.00;98242.63;4202387;28;20466;-70
2023/11/03 03:02:57;;;;;;;7.57;1.33;;;7.50;99.90;;;6.93;100.00;98235.78;4202336;28;20395;-70
2023/11/03 03:04:57;;;;;;;6.45;1.70;;;7.50;99.90;;;6.89;100.00;98226.69;4202230;28;20048;-70
2023/11/03 03:06:58;;;;;;;2.88;1.40;;;7.40;99.90;;;6.86;100.00;98224.47;4201180;28;20029;-70
2023/11/03 03:08:59;;;;;;;9.00;1.00;;;7.40;99.90;;;6.80;100.00;98225.22;4202295;28;20024;-70
2023/11/03 03:11:00;;;;;;;5.53;1.67;;;7.40;99.90;;;6.74;100.00;98220.75;4202314;28;20028;-70
2023/11/03 03:13:04;;;;;;;3.90;1.15;;;7.40;99.90;;;6.73;100.00;98217.31;4202518;28;20495;-70
2023/11/03 03:15:06;;;;;;;3.90;1.05;;;7.30;99.90;;;6.77;100.00;98215.94;4200774;28;20415;-70
2023/11/03 03:17:06;;;;;;;6.32;0.90;;;7.30;99.90;;;6.80;100.00;98226.03;4202183;28;20067;-71
2023/11/03 03:19:07;;;;;;;6.65;1.20;;;7.40;99.90;;;6.85;100.00;98217.59;4202238;28;20052;-70
2023/11/03 03:21:08;;;;;;;4.65;1.25;;;7.40;99.90;;;6.83;100.00;98217.78;4202101;28;20028;-70
2023/11/03 03:23:09;;;;;;;3.50;0.68;;;7.40;99.90;;;6.83;100.00;98209.94;4200932;28;20029;-70
2023/11/03 03:25:10;;;;;;;6.28;0.90;;;7.50;99.90;;;6.89;100.00;98214.41;4200783;28;20028;-70
2023/11/03 03:27:11;;;;;;;4.05;1.00;;;7.50;99.90;;;6.92;100.00;98202.72;4202002;28;20033;-70
2023/11/03 03:29:11;;;;;;;4.72;1.17;;;7.50;99.90;;;7.02;100.00;98203.16;4201141;28;20018;-70
2023/11/03 03:31:12;;;;;;;7.38;1.45;;;7.60;99.90;;;7.06;100.00;98196.53;4202324;28;20020;-70
2023/11/03 03:33:13;;;;;;;8.80;1.20;;;7.60;99.90;;;7.09;100.00;98204.81;4201999;28;20027;-70
2023/11/03 03:35:14;;;;;;;5.85;0.82;;;7.70;99.90;;;7.12;100.00;98201.81;4200287;28;20028;-70
2023/11/03 03:37:15;;;;;;;6.15;1.30;;;7.70;99.90;;;7.16;100.00;98192.53;4202228;28;20024;-70
2023/11/03 03:39:16;;;;;;;3.58;0.90;;;7.80;99.90;;;7.21;100.00;98205.06;4200846;28;20096;-70
2023/11/03 03:41:17;;;;;;;2.53;0.80;;;7.80;99.90;;;7.23;100.00;98200.41;4201978;28;20020;-70
2023/11/03 03:43:18;;;;;;;4.07;1.10;;;7.90;99.90;;;7.25;100.00;98198.41;4201833;28;20036;-70
2023/11/03 03:45:18;;;;;;;2.00;0.90;;;7.90;99.90;;;7.35;100.00;98201.47;4200600;28;20533;-70
2023/11/03 03:47:19;;;;;;;3.67;0.90;;;7.90;99.90;;;7.38;100.00;98197.66;4201935;28;20024;-70
2023/11/03 03:49:20;;;;;;;5.03;1.23;;;7.90;99.90;;;7.42;100.00;98191.81;4200499;28;20399;-70
2023/11/03 03:51:21;;;;;;;3.33;1.00;;;8.00;99.90;;;7.46;100.00;98187.78;4201863;28;20086;-70
2023/11/03 03:53:22;;;;;;;6.07;1.33;;;8.00;99.90;;;7.49;100.00;98186.59;4200603;28;20021;-70
2023/11/03 03:55:23;;;;;;;3.65;1.00;;;8.10;99.90;;;7.53;100.00;98191.22;4200881;28;20042;-70
2023/11/03 03:57:24;;;;;;;8.05;1.63;;;8.10;99.90;;;7.55;100.00;98181.34;4217254;28;20403;-70
2023/11/03 03:59:24;;;;;;;4.97;1.08;;;8.20;99.90;;;7.53;100.00;98178.09;4198805;28;20032;-70
2023/11/03 04:01:25;;;;;;;6.15;1.55;;;8.20;99.90;;;7.55;100.00;98185.78;4200594;28;20399;-71
2023/11/03 04:03:26;;;;;;;9.00;1.80;;;8.20;99.90;;;7.57;100.00;98181.16;4201775;28;20085;-70
2023/11/03 04:05:27;;;;;;;7.05;1.08;;;8.20;99.90;;;7.60;100.00;98188.63;4201584;28;20033;-70
2023/11/03 04:07:28;;;;;;;6.15;0.95;;;8.20;99.90;;;7.59;100.00;98195.66;4201514;28;20032;-70
2023/11/03 04:09:29;;;;;;;6.10;1.08;;;8.20;99.90;;;7.60;100.00;98197.31;4201768;28;20032;-70
2023/11/03 04:11:29;;;;;;;2.63;0.80;;;8.20;99.90;;;7.62;100.00;98199.72;4201782;28;20024;-70
2023/11/03 04:13:30;;;;;;;2.38;0.90;;;8.20;99.90;;;7.63;100.00;98199.53;4201405;28;20029;-71
2023/11/03 04:15:31;;;;;;;4.43;1.08;;;8.20;99.90;;;7.65;100.00;98199.31;4201543;28;20032;-70
2023/11/03 04:17:32;;;;;;;5.10;0.90;;;8.20;99.90;;;7.60;100.00;98197.31;4201687;28;20028;-70
2023/11/03 04:19:33;;;;;;;5.13;1.23;;;8.30;99.90;;;7.66;100.00;98185.19;4201486;28;20021;-70
2023/11/03 04:21:34;;;;;;;11.73;1.67;;;8.30;99.90;;;7.67;100.00;98182.38;4201629;28;20032;-70
2023/11/03 04:23:35;;;;;;;6.70;1.23;;;8.30;99.90;;;7.70;100.00;98175.94;4201528;28;20029;-70
2023/11/03 04:25:35;;;;;;;7.80;1.10;;;8.30;99.90;;;7.70;100.00;98174.13;4200469;28;20037;-70
2023/11/03 04:27:36;;;;;;;5.57;1.48;;;8.30;99.90;;;7.71;100.00;98167.84;4201602;28;20029;-70
2023/11/03 04:29:37;;;;;;;8.02;1.73;;;8.30;99.90;;;7.70;100.00;98161.00;4200512;28;20029;-70
2023/11/03 04:31:38;;;;;;;5.00;1.15;;;8.30;99.90;;;7.68;100.00;98162.19;4201499;28;20017;-70
2023/11/03 04:33:39;;;;;;;7.78;1.65;;;8.30;99.90;;;7.66;100.00;98158.97;4201507;28;20024;-70
2023/11/03 04:35:40;;;;;;;8.20;1.67;;;8.30;99.90;;;7.64;100.00;98156.56;4200242;28;20020;-70
2023/11/03 04:37:40;;;;;;;4.20;1.20;;;8.30;99.90;;;7.63;100.00;98152.31;4201526;28;20035;-70
2023/11/03 04:39:41;;;;;;;6.18;1.10;;;8.30;99.90;;;7.64;100.00;98148.69;4201467;28;20507;-70
2023/11/03 04:41:42;;;;;;;6.13;2.00;;;8.30;99.90;;;7.68;100.00;98151.69;4201542;28;20033;-70
2023/11/03 04:43:44;;;;;;;3.85;1.00;;;8.30;99.90;;;7.68;100.00;98151.69;4201405;28;20021;-70
2023/11/03 04:45:44;;;;;;;5.22;1.02;;;8.30;99.90;;;7.74;100.00;98156.13;4201466;28;20032;-70
2023/11/03 04:47:45;;;;;;;5.53;1.00;;;8.30;99.90;;;7.75;100.00;98153.31;4201387;28;20551;-70
2023/11/03 04:49:46;;;;;;;4.97;1.27;;;8.30;99.90;;;7.74;100.00;98137.75;4199884;28;20033;-70
2023/11/03 04:51:49;;;;;;;6.50;0.98;;;8.30;99.90;;;7.78;100.00;98136.38;4200085;28;20514;-70
2023/11/03 04:53:50;;;;;;;10.75;1.20;;;8.30;99.90;;;7.80;100.00;98139.59;4201407;28;20035;-70
2023/11/03 04:55:51;;;;;;;5.32;1.60;;;8.30;99.90;;;7.80;100.00;98134.34;4201327;28;20028;-70
2023/11/03 04:57:52;;;;;;;5.30;1.00;;;8.30;99.90;;;7.81;100.00;98128.09;4201324;28;20488;-70
2023/11/03 04:59:53;;;;;;;4.55;1.20;;;8.40;99.90;;;7.79;100.00;98123.03;4200348;28;20543;-70
2023/11/03 05:01:54;;;;;;;5.20;1.65;;;8.40;99.90;;;7.84;100.00;98126.88;4200177;28;20027;-70
2023/11/03 05:03:55;;;;;;;4.47;1.45;;;8.40;99.90;;;7.84;100.00;98124.25;4201200;28;20028;-70
2023/11/03 05:05:57;;;;;;;8.00;1.20;;;8.40;99.90;;;7.86;100.00;98127.47;4200957;28;20036;-70
2023/11/03 05:07:57;;;;;;;3.65;1.55;;;8.40;99.90;;;7.83;100.00;98126.06;4201435;28;20020;-70
2023/11/03 05:09:58;;;;;;;7.20;1.80;;;8.40;99.90;;;7.88;100.00;98133.34;4201255;28;20029;-70
2023/11/03 05:11:59;;;;;;;4.78;1.50;;;8.40;99.90;;;7.89;100.00;98132.31;4202958;28;20365;-70
2023/11/03 05:14:00;;;;;;;7.70;1.90;;;8.40;99.90;;;7.92;100.00;98132.72;4203614;28;20044;-70
2023/11/03 05:16:05;;;;;;;4.72;1.30;;;8.40;99.90;;;7.94;100.00;98120.22;4204255;28;20025;-70
2023/11/03 05:18:06;;;;;;;4.07;0.95;;;8.50;99.90;;;7.94;100.00;98122.84;4204010;28;20032;-70
2023/11/03 05:20:08;;;;;;;4.47;1.23;;;8.50;99.90;;;7.94;100.00;98120.22;4203936;28;20025;-71
2023/11/03 05:22:09;;;;;;;6.82;1.45;;;8.50;99.90;;;7.91;100.00;98120.63;4204017;28;20438;-70
2023/11/03 05:24:10;;;;;;;5.85;1.30;;;8.50;99.90;;;7.91;100.00;98125.06;4203837;28;20020;-71
2023/11/03 05:26:14;;;;;;;6.93;1.00;;;8.40;99.90;;;7.90;100.00;98134.75;4204145;28;20107;-71
2023/11/03 05:28:15;;;;;;;3.78;1.13;;;8.40;99.90;;;7.91;100.00;98132.94;4203993;28;20017;-71
2023/11/03 05:30:16;;;;;;;8.15;1.10;;;8.40;99.90;;;7.87;100.00;98126.47;4203933;28;20058;-70
2023/11/03 05:32:17;;;;;;;4.40;1.00;;;8.40;99.90;;;7.90;100.00;98133.94;4204292;28;20048;-71
2023/11/03 05:34:18;;;;;;;7.05;1.83;;;8.40;99.90;;;7.89;100.00;98133.13;4203769;28;20402;-70
2023/11/03 05:36:19;;;;;;;4.95;0.80;;;8.40;99.90;;;7.86;100.00;98130.91;4202781;28;20047;-71
2023/11/03 05:38:20;;;;;;;7.82;1.00;;;8.40;99.90;;;7.76;100.00;98139.19;4203936;28;20409;-70
2023/11/03 05:40:21;;;;;;;4.28;0.88;;;8.40;99.90;;;7.73;100.00;98157.16;4203957;28;20029;-70
2023/11/03 05:42:22;;;;;;;2.50;0.88;;;8.30;99.90;;;7.68;100.00;98162.19;4203804;28;20032;-70
2023/11/03 05:44:24;;;;;;;4.75;1.05;;;8.20;99.90;;;7.63;100.00;98159.34;4203645;28;20028;-70
2023/11/03 05:46:25;;;;;;;5.25;0.82;;;8.20;99.90;;;7.61;100.00;98156.94;4186008;28;20105;-70
2023/11/03 05:48:27;;;;;;;6.95;1.60;;;8.10;99.90;;;7.61;100.00;98167.44;4190396;28;20134;-70
2023/11/03 05:50:28;;;;;;;2.65;0.75;;;8.10;99.90;;;7.59;100.00;98166.81;4203514;28;20060;-70
2023/11/03 05:52:29;;;;;;;8.88;1.10;;;8.10;99.90;;;7.63;100.00;98168.03;4203605;28;20046;-70
2023/11/03 05:54:30;;;;;;;6.10;1.30;;;8.20;99.90;;;7.57;100.00;98171.47;4203454;28;20032;-70
2023/11/03 05:56:31;;;;;;;5.40;1.17;;;8.10;99.90;;;7.51;100.00;98174.88;4202334;28;20032;-70
2023/11/03 05:58:31;;;;;;;5.95;1.52;;;8.10;99.90;;;7.39;100.00;98173.84;4203614;28;20111;-70
2023/11/03 06:00:32;;;;;;;4.25;1.20;;;8.00;99.90;;;7.30;100.00;98182.09;4203525;28;20035;-70
2023/11/03 06:02:33;;;;;;;12.02;1.83;;;7.90;99.90;;;7.21;100.00;98177.03;4203448;28;20029;-70
2023/11/03 06:04:35;;;;;;;5.07;1.48;;;7.80;99.90;;;7.14;100.00;98184.06;4203308;28;20021;-70
2023/11/03 06:06:36;;;;;;;5.85;1.70;;;7.70;99.90;;;7.12;100.00;98188.69;4203400;28;20064;-70
2023/11/03 06:08:37;;;;;;;7.90;2.47;;;7.70;99.90;;;7.08;100.00;98187.47;4203306;28;20101;-70
2023/11/03 06:10:38;;;;;;;4.80;1.48;;;7.70;99.90;;;7.07;100.00;98187.66;4201504;28;20028;-70
2023/11/03 06:12:39;;;;;;;8.75;2.58;;;7.60;99.90;;;7.09;100.00;98196.13;4202846;28;20070;-70
2023/11/03 06:14:40;;;;;;;11.75;2.47;;;7.60;99.90;;;7.12;100.00;98199.19;4185033;28;20103;-70
2023/11/03 06:16:41;;;;;;;9.93;1.98;;;7.70;99.90;;;7.13;100.00;98205.22;4203277;28;20033;-70
2023/11/03 06:18:41;;;;;;;8.43;1.77;;;7.70;99.90;;;7.11;100.00;98199.34;4203143;28;20020;-70
2023/11/03 06:20:42;;;;;;;16.40;1.85;;;7.70;99.90;;;7.09;100.00;98217.91;4203016;28;20024;-70
2023/11/03 06:22:43;;;;;;;11.18;1.80;;;7.70;99.90;;;7.06;100.00;98220.94;4202047;28;20036;-70
2023/11/03 06:24:44;;;;;;;10.45;1.83;;;7.70;99.90;;;7.06;100.00;98217.50;4201855;28;20044;-70
2023/11/03 06:26:45;;;;;;;10.50;1.88;;;7.70;99.90;;;7.07;100.00;98227.00;4201860;28;20032;-70
2023/11/03 06:28:46;;;;;;;10.57;1.90;;;7.70;99.90;;;7.02;100.00;98234.59;4202898;28;20033;-70
2023/11/03 06:30:47;;;;;;;14.85;1.92;;;7.60;99.90;;;6.99;100.00;98237.63;4203089;28;20494;-70
2023/11/03 06:32:48;;;;;;;5.40;1.33;;;7.60;99.90;;;6.96;100.00;98235.41;4201948;28;20017;-70
2023/11/03 06:34:49;;;;;;;4.90;2.13;;;7.60;99.90;;;6.96;100.00;98248.50;4202696;28;20040;-70
2023/11/03 06:36:50;;;;;;;3.83;1.42;;;7.60;99.90;;;6.91;100.00;98243.03;4201670;28;20021;-70
2023/11/03 06:38:50;;;;;;;2.00;1.50;;;7.60;99.90;;;6.81;100.00;98242.59;4202862;28;20031;-70
2023/11/03 06:40:52;;;;;;;3.72;1.70;;;7.50;99.90;;;6.77;100.00;98259.69;4201700;28;20029;-70
2023/11/03 06:42:53;;;;;;;3.78;1.10;;;7.40;99.90;;;6.71;100.00;98263.06;4202828;28;20499;-70
2023/11/03 06:44:54;;;;;;;4.93;1.48;;;7.40;99.90;;;6.69;100.00;98261.44;4201398;28;20026;-70
2023/11/03 06:46:55;;;;;;;3.83;1.10;;;7.30;99.90;;;6.66;100.00;98266.25;4201449;28;20094;-70
2023/11/03 06:48:56;;;;;;;3.67;1.35;;;7.30;99.90;;;6.63;100.00;98277.91;4202700;28;20028;-70
2023/11/03 06:50:57;;;;;;;8.38;1.30;;;7.20;99.90;;;6.63;100.00;98287.59;4201225;28;20028;-70
2023/11/03 06:52:58;;;;;;;2.42;1.17;;;7.30;99.90;;;6.61;100.00;98289.59;4202503;28;20075;-70
2023/11/03 06:54:59;;;;;;;7.72;1.35;;;7.20;99.90;;;6.63;100.00;98292.84;4202597;28;20032;-70
2023/11/03 06:57:00;;;;;;;6.60;1.63;;;7.20;99.90;;;6.61;100.00;98290.41;4202757;28;20373;-70
2023/11/03 06:59:00;;;;;;;3.80;1.20;;;7.20;99.90;;;6.64;100.00;98289.22;4201308;28;20391;-70
2023/11/03 07:01:01;;;;;;;8.93;1.23;;;7.30;99.90;;;6.67;100.00;98304.53;4202419;28;20024;-70
2023/11/03 07:03:02;;;;;;;2.28;1.20;;;7.20;99.90;;;6.71;100.00;98304.97;4202567;28;20541;-70
2023/11/03 07:05:04;;;;;;;4.35;1.10;;;7.30;99.90;;;6.75;100.00;98301.00;4202195;28;20495;-70
2023/11/03 07:07:05;;;;;;;3.25;0.90;;;7.30;99.90;;;6.80;100.00;98303.84;4202408;28;20039;-70
2023/11/03 07:09:05;;;;;;;7.68;1.50;;;7.40;99.90;;;6.86;100.00;98297.81;4202190;28;20124;-70
2023/11/03 07:11:06;;;;;;;3.63;1.20;;;7.40;99.90;;;6.92;100.00;98310.97;4202418;28;20035;-70
2023/11/03 07:13:07;;;;;;;4.05;1.35;;;7.40;99.90;;;6.96;100.00;98308.78;4202295;28;20046;-70
2023/11/03 07:15:11;;;;;;;5.35;1.23;;;7.50;99.90;;;6.99;100.00;98332.00;4201886;28;20045;-70
2023/11/03 07:17:12;;;;;;;4.43;1.30;;;7.50;99.90;;;7.01;100.00;98338.66;4202082;28;20499;-70
2023/11/03 07:19:13;;;;;;;4.82;1.80;;;7.50;99.90;;;7.02;100.00;98340.25;4202100;28;20053;-70
2023/11/03 07:21:15;;;;;;;3.47;1.23;;;7.60;99.90;;;7.05;100.00;98350.34;4202383;28;20046;-70
2023/11/03 07:23:17;;;;;;;6.60;1.35;;;7.60;99.90;;;7.07;100.00;98352.81;4202164;28;20521;-70
2023/11/03 07:25:19;;;;;;;2.80;1.40;;;7.60;99.90;;;7.08;100.00;98357.03;4201906;28;20070;-70
2023/11/03 07:27:20;;;;;;;5.25;1.50;;;7.60;99.90;;;7.12;100.00;98368.75;4201208;28;20103;-70
2023/11/03 07:29:21;;;;;;;3.97;1.33;;;7.60;99.90;;;7.09;100.00;98356.84;4200911;28;20020;-70
2023/11/03 07:31:22;;;;;;;3.25;1.20;;;7.70;99.90;;;7.13;100.00;98362.53;4200921;28;20027;-70
2023/11/03 07:33:23;;;;;;;2.05;1.27;;;7.70;99.90;;;7.15;100.00;98365.75;4202053;28;20056;-70
2023/11/03 07:35:24;;;;;;;2.45;1.20;;;7.70;99.90;;;7.16;100.00;98375.25;4200521;28;20056;-70
2023/11/03 07:37:26;;;;;;;6.50;1.23;;;7.70;99.90;;;7.18;100.00;98376.66;4200729;28;20024;-70
2023/11/03 07:39:26;;;;;;;3.55;1.25;;;7.70;99.90;;;7.22;100.00;98377.09;4200744;28;20025;-70
2023/11/03 07:41:27;;;;;;;3.25;1.40;;;7.70;99.90;;;7.22;100.00;98387.59;4200798;28;20030;-70
2023/11/03 07:43:29;;;;;;;2.72;1.50;;;7.80;99.90;;;7.24;100.00;98378.53;4201981;28;20403;-70
2023/11/03 07:45:32;;;;;;;21.20;9.05;;;7.80;99.90;;;7.27;100.00;98385.19;4200705;28;20028;-70
2023/11/03 07:47:34;;;;;;;15.18;7.68;;;7.80;99.90;;;7.32;100.00;98389.88;4202130;28;20063;-70
2023/11/03 07:49:36;;;;;;;9.88;6.40;;;7.80;99.90;;;7.36;100.00;98389.28;4201803;28;20020;-70
2023/11/03 07:51:37;;;;;;;8.30;5.72;;;7.90;99.90;;;7.40;100.00;98402.81;4201918;28;20069;-70
2023/11/03 07:53:37;;;;;;;8.55;2.70;;;7.90;99.90;;;7.43;100.00;98399.81;4201892;28;20021;-70
2023/11/03 07:55:38;;;;;;;3.90;2.75;;;7.90;99.90;;;7.48;100.00;98395.59;4201907;28;20114;-70
2023/11/03 07:57:39;;;;;;;4.47;2.25;;;8.00;99.90;;;7.55;100.00;98404.34;4200461;28;20052;-70
2023/11/03 07:59:41;;;;;;;7.40;2.08;;;8.00;99.90;;;7.62;100.00;98410.41;4200572;28;20039;-70
2023/11/03 08:01:42;;;;;;;6.35;2.17;;;8.10;99.90;;;7.65;100.00;98410.03;4201964;28;20028;-70
2023/11/03 08:03:43;;;;;;;7.15;5.13;;;8.10;99.90;;;7.69;100.00;98410.44;4200579;28;20067;-70
2023/11/03 08:05:44;;;;;;;11.70;7.57;;;8.10;99.90;;;7.76;100.00;98419.97;4200482;28;20025;-70
2023/11/03 08:07:45;;;;;;;7.97;5.28;;;8.20;99.90;;;7.76;100.00;98416.56;4201717;28;20039;-70
2023/11/03 08:09:46;;;;;;;8.05;3.78;;;8.20;99.90;;;7.80;100.00;98410.69;4208110;28;20024;-70
2023/11/03 08:11:47;;;;;;;6.68;3.38;;;8.30;99.90;;;7.84;100.00;98415.56;4201415;28;20020;-70
2023/11/03 08:13:48;;;;;;;4.85;2.33;;;8.30;99.90;;;7.88;100.00;98419.44;4200125;28;20163;-70
2023/11/03 08:15:49;;;;;;;4.53;2.33;;;8.30;99.90;;;7.94;100.00;98413.41;4201487;28;20035;-70
2023/11/03 08:17:50;;;;;;;5.40;2.10;;;8.40;99.90;;;8.01;100.00;98414.22;4200879;28;20515;-70
2023/11/03 08:19:51;;;;;;;3.25;1.70;;;8.40;99.90;;;8.07;100.00;98416.06;4200429;28;20032;-70
2023/11/03 08:21:52;;;;;;;2.75;1.50;;;8.50;99.90;;;8.17;100.00;98419.94;4200518;28;20419;-70
2023/11/03 08:23:54;;;;;;;3.42;1.48;;;8.60;99.90;;;8.22;100.00;98427.22;4201458;28;20024;-70
2023/11/03 08:25:54;;;;;;;3.85;1.23;;;8.60;99.90;;;8.28;100.00;98436.97;4201398;28;20021;-70
2023/11/03 08:27:56;;;;;;;3.22;1.60;;;8.70;99.90;;;8.35;100.00;98435.19;4201719;28;20020;-70
2023/11/03 08:29:57;;;;;;;2.00;1.20;;;8.80;99.90;;;8.42;100.00;98443.09;4200245;28;20029;-70
2023/11/03 08:31:58;;;;;;;5.72;1.50;;;8.80;99.90;;;8.43;100.00;98445.50;4201449;28;20021;-70
2023/11/03 08:33:59;;;;;;;4.13;1.80;;;8.90;99.90;;;8.50;100.00;98451.59;4201102;28;20029;-70